createdAt,value
2019-03-16T00:03:48.546Z,0.53
2019-03-16T00:08:50.133Z,0.67
2019-03-16T00:13:51.808Z,0.77
2019-03-16T00:18:53.400Z,0.90
2019-03-16T00:23:54.983Z,0.80
2019-03-16T00:28:56.587Z,0.97
2019-03-16T00:33:58.268Z,0.80
2019-03-16T00:38:59.969Z,0.80
2019-03-16T00:44:01.694Z,0.73
2019-03-16T00:49:03.344Z,0.87
2019-03-16T00:54:05.060Z,1.00
2019-03-16T00:59:06.939Z,1.10
2019-03-16T01:04:08.508Z,1.00
2019-03-16T01:09:10.222Z,0.80
2019-03-16T01:14:11.945Z,1.20
2019-03-16T01:19:13.514Z,1.17
2019-03-16T01:24:15.209Z,1.07
2019-03-16T01:29:16.803Z,0.80
2019-03-16T01:34:18.403Z,1.00
2019-03-16T01:39:20.028Z,1.33
2019-03-16T01:44:21.773Z,1.10
2019-03-16T01:49:23.313Z,1.00
2019-03-16T01:54:24.877Z,1.17
2019-03-16T01:59:26.505Z,1.43
2019-03-16T02:04:28.082Z,1.47
2019-03-16T02:09:29.636Z,1.10
2019-03-16T02:14:31.206Z,1.10
2019-03-16T02:19:35.821Z,1.17
2019-03-16T02:24:36.268Z,0.80
2019-03-16T02:29:37.946Z,1.00
2019-03-16T02:34:39.519Z,0.93
2019-03-16T02:39:41.106Z,1.70
2019-03-16T02:44:42.690Z,1.20
2019-03-16T02:49:44.277Z,1.33
2019-03-16T02:54:46.048Z,1.10
2019-03-16T02:59:47.642Z,1.03
2019-03-16T03:04:49.370Z,0.93
2019-03-16T03:09:51.022Z,0.90
2019-03-16T03:14:52.742Z,0.93
2019-03-16T03:19:54.471Z,0.90
2019-03-16T03:24:56.097Z,1.00
2019-03-16T03:29:57.922Z,1.00
2019-03-16T03:34:59.560Z,1.13
2019-03-16T03:40:01.184Z,0.97
2019-03-16T03:45:03.523Z,1.40
2019-03-16T03:50:05.678Z,1.17
2019-03-16T03:55:07.394Z,1.43
2019-03-16T04:00:09.684Z,1.07
2019-03-16T04:05:11.536Z,1.00
2019-03-16T04:10:13.445Z,1.13
2019-03-16T04:15:15.162Z,1.13
2019-03-16T04:20:16.898Z,1.30
2019-03-16T04:25:18.583Z,1.30
2019-03-16T04:30:20.187Z,0.97
2019-03-16T04:35:21.825Z,1.07
2019-03-16T04:40:23.425Z,1.00
2019-03-16T04:45:25.041Z,1.03
2019-03-16T04:50:26.650Z,0.80
2019-03-16T04:55:28.310Z,1.00
2019-03-16T05:00:29.865Z,0.80
2019-03-16T05:05:31.554Z,1.20
2019-03-16T05:10:33.136Z,1.23
2019-03-16T05:15:34.846Z,1.57
2019-03-16T05:20:36.429Z,1.10
2019-03-16T05:25:38.111Z,1.20
2019-03-16T05:30:39.742Z,1.30
2019-03-16T05:35:41.426Z,1.47
2019-03-16T05:40:42.998Z,1.30
2019-03-16T05:45:44.627Z,1.10
2019-03-16T05:50:46.217Z,1.20
2019-03-16T05:55:47.812Z,1.00
2019-03-16T06:00:49.406Z,1.07
2019-03-16T06:05:51.035Z,1.33
2019-03-16T06:10:52.893Z,0.87
2019-03-16T06:15:54.501Z,1.33
2019-03-16T06:20:56.216Z,0.90
2019-03-16T06:25:57.842Z,0.93
2019-03-16T06:30:59.458Z,1.17
2019-03-16T06:36:01.267Z,0.70
2019-03-16T06:41:02.957Z,0.83
2019-03-16T06:46:04.716Z,1.07
2019-03-16T06:51:06.296Z,1.13
2019-03-16T06:56:07.894Z,1.17
2019-03-16T07:01:09.474Z,1.03
2019-03-16T07:06:11.198Z,1.30
2019-03-16T07:11:13.310Z,0.73
2019-03-16T07:16:14.932Z,1.00
2019-03-16T07:21:16.490Z,0.90
2019-03-16T07:26:18.087Z,0.90
2019-03-16T07:31:19.698Z,1.03
2019-03-16T07:36:21.290Z,1.03
2019-03-16T07:41:23.595Z,0.93
2019-03-16T07:46:25.184Z,1.50
2019-03-16T07:51:26.871Z,1.20
2019-03-16T07:56:28.595Z,1.00
2019-03-16T08:01:30.209Z,1.00
2019-03-16T08:06:33.392Z,1.17
2019-03-16T08:11:38.529Z,1.20
2019-03-16T08:16:40.129Z,1.53
2019-03-16T08:21:41.687Z,1.03
2019-03-16T08:26:43.230Z,0.83
2019-03-16T08:31:44.823Z,1.10
2019-03-16T08:36:46.430Z,0.90
2019-03-16T08:41:48.102Z,1.00
2019-03-16T08:46:49.793Z,0.97
2019-03-16T08:51:51.470Z,1.27
2019-03-16T08:56:53.117Z,1.30
2019-03-16T09:01:54.721Z,1.50
2019-03-16T09:06:56.362Z,1.13
2019-03-16T09:11:58.373Z,1.10
2019-03-16T09:17:00.067Z,1.50
2019-03-16T09:22:01.610Z,1.43
2019-03-16T09:27:03.321Z,1.50
2019-03-16T09:32:04.885Z,1.30
2019-03-16T09:37:06.490Z,1.33
2019-03-16T09:42:08.170Z,1.20
2019-03-16T09:47:09.896Z,1.13
2019-03-16T09:52:11.578Z,1.33
2019-03-16T09:57:13.228Z,1.67
2019-03-16T10:02:15.991Z,1.60
2019-03-16T10:07:17.657Z,1.50
2019-03-16T10:12:19.311Z,1.90
2019-03-16T10:17:21.064Z,1.70
2019-03-16T10:22:22.688Z,2.03
2019-03-16T10:27:24.269Z,1.70
2019-03-16T10:32:25.826Z,1.50
2019-03-16T10:37:27.476Z,1.70
2019-03-16T10:42:29.073Z,2.00
2019-03-16T10:47:30.730Z,2.07
2019-03-16T10:52:32.329Z,1.97
2019-03-16T10:57:33.981Z,1.93
2019-03-16T11:02:35.720Z,2.63
2019-03-16T11:07:37.283Z,4.57
2019-03-16T11:12:38.852Z,2.80
2019-03-16T11:17:40.420Z,1.87
2019-03-16T11:22:41.949Z,1.50
2019-03-16T11:27:43.751Z,2.00
2019-03-16T11:32:45.300Z,1.63
2019-03-16T11:37:46.875Z,2.27
2019-03-16T11:42:48.448Z,1.57
2019-03-16T11:47:50.017Z,1.90
2019-03-16T11:52:52.037Z,1.60
2019-03-16T11:57:53.636Z,1.83
2019-03-16T12:02:55.260Z,1.60
2019-03-16T12:07:57.006Z,2.70
2019-03-16T12:12:58.581Z,1.80
2019-03-16T12:18:00.131Z,1.87
2019-03-16T12:23:01.698Z,1.60
2019-03-16T12:28:03.405Z,2.60
2019-03-16T12:33:05.153Z,1.93
2019-03-16T12:38:06.762Z,2.40
2019-03-16T12:43:08.445Z,2.07
2019-03-16T12:48:10.121Z,1.97
2019-03-16T12:53:11.693Z,2.20
2019-03-16T12:58:13.279Z,2.20
2019-03-16T13:03:15.033Z,2.40
2019-03-16T13:08:16.656Z,2.47
2019-03-16T13:13:18.246Z,2.40
2019-03-16T13:18:19.818Z,2.50
2019-03-16T13:23:21.385Z,2.40
2019-03-16T13:28:22.987Z,2.30
2019-03-16T13:33:24.520Z,3.03
2019-03-16T13:38:26.194Z,2.60
2019-03-16T13:43:27.846Z,2.20
2019-03-16T13:48:29.419Z,2.23
2019-03-16T13:53:32.687Z,2.10
2019-03-16T13:58:34.550Z,2.20
2019-03-16T14:03:36.147Z,1.77
2019-03-16T14:08:38.087Z,3.37
2019-03-16T14:13:39.694Z,2.13
2019-03-16T14:18:41.469Z,2.13
2019-03-16T14:23:43.148Z,1.77
2019-03-16T14:28:44.723Z,1.47
2019-03-16T14:33:46.365Z,1.13
2019-03-16T14:38:47.945Z,0.70
2019-03-16T14:43:49.522Z,0.73
2019-03-16T14:48:51.138Z,0.80
2019-03-16T14:53:53.203Z,0.70
2019-03-16T14:58:54.870Z,0.70
2019-03-16T15:03:56.482Z,0.90
2019-03-16T15:08:58.045Z,0.70
2019-03-16T15:13:59.732Z,0.90
2019-03-16T15:19:01.303Z,0.60
2019-03-16T15:24:03.085Z,0.70
2019-03-16T15:29:04.825Z,0.80
2019-03-16T15:34:06.393Z,0.53
2019-03-16T15:39:07.974Z,1.00
2019-03-16T15:44:09.561Z,0.67
2019-03-16T15:49:11.117Z,0.80
2019-03-16T15:54:12.678Z,0.73
2019-03-16T15:59:14.246Z,0.60
2019-03-16T16:04:15.800Z,0.67
2019-03-16T16:09:17.480Z,0.53
2019-03-16T16:14:19.083Z,0.53
2019-03-16T16:19:21.948Z,0.67
2019-03-16T16:24:23.753Z,0.70
2019-03-16T16:29:25.332Z,0.50
2019-03-16T16:34:26.976Z,0.50
2019-03-16T16:39:28.691Z,0.60
2019-03-16T16:44:30.313Z,0.60
2019-03-16T16:49:31.893Z,0.50
2019-03-16T16:54:33.690Z,0.50
2019-03-16T16:59:35.240Z,0.87
2019-03-16T17:04:36.953Z,0.70
2019-03-16T17:09:38.640Z,0.40
2019-03-16T17:14:40.295Z,0.40
2019-03-16T17:19:41.873Z,0.73
2019-03-16T17:24:43.565Z,0.67
2019-03-16T17:29:45.191Z,0.50
2019-03-16T17:34:46.759Z,0.67
2019-03-16T17:39:48.469Z,0.80
2019-03-16T17:44:51.182Z,0.63
2019-03-16T17:49:52.936Z,0.70
2019-03-16T17:54:54.487Z,0.73
2019-03-16T17:59:56.041Z,0.63
2019-03-16T18:04:57.606Z,0.80
2019-03-16T18:09:59.136Z,0.50
2019-03-16T18:15:00.722Z,0.57
2019-03-16T18:20:03.068Z,0.70
2019-03-16T18:25:05.653Z,0.93
2019-03-16T18:30:09.296Z,0.67
2019-03-16T18:35:10.866Z,0.93
2019-03-16T18:40:12.546Z,0.70
2019-03-16T18:45:14.692Z,0.80
2019-03-16T18:50:16.369Z,0.90
2019-03-16T18:55:18.369Z,0.80
2019-03-16T19:00:20.015Z,1.20
2019-03-16T19:05:21.594Z,1.00
2019-03-16T19:10:23.156Z,1.10
2019-03-16T19:15:24.732Z,1.13
2019-03-16T19:20:26.301Z,0.93
2019-03-16T19:25:27.832Z,1.20
2019-03-16T19:30:29.496Z,1.30
2019-03-16T19:35:31.056Z,1.10
2019-03-16T19:40:32.606Z,1.30
2019-03-16T19:45:34.223Z,1.00
2019-03-16T19:50:35.793Z,1.27
2019-03-16T19:55:38.150Z,1.40
2019-03-16T20:00:39.707Z,1.40
2019-03-16T20:05:41.271Z,1.30
2019-03-16T20:10:42.848Z,1.10
2019-03-16T20:15:44.516Z,1.30
2019-03-16T20:20:46.088Z,1.10
2019-03-16T20:25:47.666Z,1.20
2019-03-16T20:30:49.300Z,1.10
2019-03-16T20:35:50.921Z,1.13
2019-03-16T20:40:52.507Z,1.30
2019-03-16T20:45:54.066Z,1.33
2019-03-16T20:50:55.622Z,1.40
2019-03-16T20:55:57.157Z,1.20
2019-03-16T21:00:58.758Z,2.00
2019-03-16T21:06:00.458Z,1.50
2019-03-16T21:11:02.156Z,1.30
2019-03-16T21:16:03.947Z,1.17
2019-03-16T21:21:05.580Z,1.47
2019-03-16T21:26:07.139Z,1.23
2019-03-16T21:31:08.803Z,1.40
2019-03-16T21:36:10.347Z,1.30
2019-03-16T21:41:12.081Z,1.07
2019-03-16T21:46:13.704Z,1.20
2019-03-16T21:51:15.296Z,1.27
2019-03-16T21:56:16.925Z,1.10
2019-03-16T22:01:18.525Z,0.90
2019-03-16T22:06:20.143Z,0.93
2019-03-16T22:11:21.800Z,1.20
2019-03-16T22:16:23.543Z,1.10
2019-03-16T22:21:25.156Z,1.10
2019-03-16T22:26:26.872Z,1.10
2019-03-16T22:31:28.451Z,1.30
2019-03-16T22:36:30.079Z,1.00
2019-03-16T22:41:31.651Z,1.37
2019-03-16T22:46:33.378Z,1.20
2019-03-16T22:51:35.011Z,1.30
2019-03-16T22:56:36.643Z,1.27
2019-03-16T23:01:38.303Z,1.30
2019-03-16T23:06:39.882Z,1.40
2019-03-16T23:11:41.482Z,1.33
2019-03-16T23:16:43.270Z,1.53
2019-03-16T23:21:44.931Z,1.20
2019-03-16T23:26:46.491Z,1.10
2019-03-16T23:31:48.083Z,2.10
2019-03-16T23:36:49.660Z,1.20
2019-03-16T23:41:51.274Z,1.23
2019-03-16T23:46:52.900Z,1.00
2019-03-16T23:51:54.514Z,1.13
2019-03-16T23:56:56.256Z,1.10
